sensor_id;sensor_type;location;lat;lon;timestamp;P1;durP1;ratioP1;P2;durP2;ratioP2
66597;SDS011;57424;53.128;6.406;2024-02-26T00:01:55;10.65;;;6.93;;
66597;SDS011;57424;53.128;6.406;2024-02-26T00:04:21;11.23;;;7.32;;
66597;SDS011;57424;53.128;6.406;2024-02-26T00:06:47;9.30;;;6.38;;
66597;SDS011;57424;53.128;6.406;2024-02-26T00:09:14;9.80;;;6.40;;
66597;SDS011;57424;53.128;6.406;2024-02-26T00:11:40;9.35;;;6.65;;
66597;SDS011;57424;53.128;6.406;2024-02-26T00:14:05;9.77;;;6.25;;
66597;SDS011;57424;53.128;6.406;2024-02-26T00:16:31;9.15;;;6.57;;
66597;SDS011;57424;53.128;6.406;2024-02-26T00:18:57;9.13;;;6.38;;
66597;SDS011;57424;53.128;6.406;2024-02-26T00:21:23;9.80;;;6.70;;
66597;SDS011;57424;53.128;6.406;2024-02-26T00:23:52;10.13;;;6.32;;
66597;SDS011;57424;53.128;6.406;2024-02-26T00:26:18;10.65;;;6.90;;
66597;SDS011;57424;53.128;6.406;2024-02-26T00:28:44;8.52;;;6.18;;
66597;SDS011;57424;53.128;6.406;2024-02-26T00:31:09;8.23;;;6.07;;
66597;SDS011;57424;53.128;6.406;2024-02-26T00:33:35;11.82;;;7.15;;
66597;SDS011;57424;53.128;6.406;2024-02-26T00:36:01;10.15;;;6.57;;
66597;SDS011;57424;53.128;6.406;2024-02-26T00:38:26;10.30;;;6.70;;
66597;SDS011;57424;53.128;6.406;2024-02-26T00:40:52;9.30;;;6.38;;
66597;SDS011;57424;53.128;6.406;2024-02-26T00:43:18;9.45;;;6.55;;
66597;SDS011;57424;53.128;6.406;2024-02-26T00:45:43;10.13;;;6.82;;
66597;SDS011;57424;53.128;6.406;2024-02-26T00:48:09;11.38;;;7.32;;
66597;SDS011;57424;53.128;6.406;2024-02-26T00:50:34;11.07;;;7.55;;
66597;SDS011;57424;53.128;6.406;2024-02-26T00:53:00;11.10;;;6.82;;
66597;SDS011;57424;53.128;6.406;2024-02-26T00:55:26;11.95;;;7.15;;
66597;SDS011;57424;53.128;6.406;2024-02-26T00:57:52;9.32;;;6.57;;
66597;SDS011;57424;53.128;6.406;2024-02-26T01:00:17;10.55;;;7.10;;
66597;SDS011;57424;53.128;6.406;2024-02-26T01:02:43;11.63;;;7.22;;
66597;SDS011;57424;53.128;6.406;2024-02-26T01:05:11;10.35;;;6.80;;
66597;SDS011;57424;53.128;6.406;2024-02-26T01:07:37;10.65;;;7.45;;
66597;SDS011;57424;53.128;6.406;2024-02-26T01:10:04;11.40;;;7.53;;
66597;SDS011;57424;53.128;6.406;2024-02-26T01:12:31;10.38;;;7.15;;
66597;SDS011;57424;53.128;6.406;2024-02-26T01:14:58;11.32;;;7.63;;
66597;SDS011;57424;53.128;6.406;2024-02-26T01:17:23;10.18;;;6.80;;
66597;SDS011;57424;53.128;6.406;2024-02-26T01:19:49;11.35;;;7.43;;
66597;SDS011;57424;53.128;6.406;2024-02-26T01:22:14;9.77;;;6.97;;
66597;SDS011;57424;53.128;6.406;2024-02-26T01:24:40;11.25;;;7.63;;
66597;SDS011;57424;53.128;6.406;2024-02-26T01:27:05;10.75;;;7.25;;
66597;SDS011;57424;53.128;6.406;2024-02-26T01:29:32;10.73;;;6.68;;
66597;SDS011;57424;53.128;6.406;2024-02-26T01:31:58;10.98;;;6.93;;
66597;SDS011;57424;53.128;6.406;2024-02-26T01:34:23;10.27;;;6.93;;
66597;SDS011;57424;53.128;6.406;2024-02-26T01:36:49;9.38;;;6.57;;
66597;SDS011;57424;53.128;6.406;2024-02-26T01:39:15;8.82;;;6.57;;
66597;SDS011;57424;53.128;6.406;2024-02-26T01:41:40;8.73;;;6.22;;
66597;SDS011;57424;53.128;6.406;2024-02-26T01:44:06;9.68;;;6.90;;
66597;SDS011;57424;53.128;6.406;2024-02-26T01:46:32;8.38;;;5.75;;
66597;SDS011;57424;53.128;6.406;2024-02-26T01:48:59;9.25;;;6.30;;
66597;SDS011;57424;53.128;6.406;2024-02-26T01:51:26;11.13;;;7.13;;
66597;SDS011;57424;53.128;6.406;2024-02-26T01:53:52;9.07;;;6.20;;
66597;SDS011;57424;53.128;6.406;2024-02-26T01:56:18;9.77;;;6.55;;
66597;SDS011;57424;53.128;6.406;2024-02-26T01:58:44;9.32;;;6.45;;
66597;SDS011;57424;53.128;6.406;2024-02-26T02:01:10;10.32;;;6.90;;
66597;SDS011;57424;53.128;6.406;2024-02-26T02:03:37;9.68;;;6.80;;
66597;SDS011;57424;53.128;6.406;2024-02-26T02:06:03;10.75;;;7.22;;
66597;SDS011;57424;53.128;6.406;2024-02-26T02:08:30;11.27;;;6.60;;
66597;SDS011;57424;53.128;6.406;2024-02-26T02:10:56;9.25;;;6.38;;
66597;SDS011;57424;53.128;6.406;2024-02-26T02:13:21;8.65;;;5.85;;
66597;SDS011;57424;53.128;6.406;2024-02-26T02:15:47;9.30;;;6.20;;
66597;SDS011;57424;53.128;6.406;2024-02-26T02:18:13;7.15;;;5.32;;
66597;SDS011;57424;53.128;6.406;2024-02-26T02:20:38;8.38;;;5.40;;
66597;SDS011;57424;53.128;6.406;2024-02-26T02:23:04;6.32;;;4.72;;
66597;SDS011;57424;53.128;6.406;2024-02-26T02:25:29;6.95;;;4.97;;
66597;SDS011;57424;53.128;6.406;2024-02-26T02:27:55;7.57;;;5.35;;
66597;SDS011;57424;53.128;6.406;2024-02-26T02:30:23;7.47;;;5.15;;
66597;SDS011;57424;53.128;6.406;2024-02-26T02:32:51;7.85;;;5.10;;
66597;SDS011;57424;53.128;6.406;2024-02-26T02:35:18;7.45;;;5.25;;
66597;SDS011;57424;53.128;6.406;2024-02-26T02:37:43;8.45;;;5.45;;
66597;SDS011;57424;53.128;6.406;2024-02-26T02:40:09;7.28;;;4.85;;
66597;SDS011;57424;53.128;6.406;2024-02-26T02:42:35;6.40;;;4.57;;
66597;SDS011;57424;53.128;6.406;2024-02-26T02:45:00;5.78;;;4.53;;
66597;SDS011;57424;53.128;6.406;2024-02-26T02:47:26;6.00;;;4.28;;
66597;SDS011;57424;53.128;6.406;2024-02-26T02:49:52;6.47;;;4.65;;
66597;SDS011;57424;53.128;6.406;2024-02-26T02:52:17;5.18;;;4.10;;
66597;SDS011;57424;53.128;6.406;2024-02-26T02:54:43;5.78;;;4.65;;
66597;SDS011;57424;53.128;6.406;2024-02-26T02:57:08;5.93;;;4.53;;
66597;SDS011;57424;53.128;6.406;2024-02-26T02:59:35;6.63;;;4.93;;
66597;SDS011;57424;53.128;6.406;2024-02-26T03:02:01;5.57;;;4.35;;
66597;SDS011;57424;53.128;6.406;2024-02-26T03:04:26;5.68;;;4.38;;
66597;SDS011;57424;53.128;6.406;2024-02-26T03:06:52;6.15;;;4.40;;
66597;SDS011;57424;53.128;6.406;2024-02-26T03:09:17;6.95;;;4.65;;
66597;SDS011;57424;53.128;6.406;2024-02-26T03:11:43;5.65;;;4.03;;
66597;SDS011;57424;53.128;6.406;2024-02-26T03:14:09;7.68;;;4.93;;
66597;SDS011;57424;53.128;6.406;2024-02-26T03:16:34;6.32;;;4.40;;
66597;SDS011;57424;53.128;6.406;2024-02-26T03:19:00;7.00;;;4.57;;
66597;SDS011;57424;53.128;6.406;2024-02-26T03:21:26;6.10;;;4.28;;
66597;SDS011;57424;53.128;6.406;2024-02-26T03:23:52;6.40;;;4.60;;
66597;SDS011;57424;53.128;6.406;2024-02-26T03:26:18;6.55;;;4.57;;
66597;SDS011;57424;53.128;6.406;2024-02-26T03:28:44;6.68;;;4.10;;
66597;SDS011;57424;53.128;6.406;2024-02-26T03:31:09;4.82;;;3.80;;
66597;SDS011;57424;53.128;6.406;2024-02-26T03:33:35;5.68;;;3.95;;
66597;SDS011;57424;53.128;6.406;2024-02-26T03:36:01;5.25;;;4.03;;
66597;SDS011;57424;53.128;6.406;2024-02-26T03:38:28;5.38;;;4.15;;
66597;SDS011;57424;53.128;6.406;2024-02-26T03:40:54;5.03;;;3.85;;
66597;SDS011;57424;53.128;6.406;2024-02-26T03:43:19;5.32;;;3.92;;
66597;SDS011;57424;53.128;6.406;2024-02-26T03:45:46;4.78;;;3.67;;
66597;SDS011;57424;53.128;6.406;2024-02-26T03:48:12;5.47;;;3.67;;
66597;SDS011;57424;53.128;6.406;2024-02-26T03:50:37;7.78;;;4.53;;
66597;SDS011;57424;53.128;6.406;2024-02-26T03:53:03;6.28;;;3.92;;
66597;SDS011;57424;53.128;6.406;2024-02-26T03:55:28;5.40;;;3.58;;
66597;SDS011;57424;53.128;6.406;2024-02-26T03:57:54;5.93;;;3.80;;
66597;SDS011;57424;53.128;6.406;2024-02-26T04:00:20;4.95;;;3.70;;
66597;SDS011;57424;53.128;6.406;2024-02-26T04:02:48;5.60;;;3.88;;
66597;SDS011;57424;53.128;6.406;2024-02-26T04:05:16;4.80;;;4.03;;
66597;SDS011;57424;53.128;6.406;2024-02-26T04:07:42;5.07;;;3.50;;
66597;SDS011;57424;53.128;6.406;2024-02-26T04:10:10;5.13;;;3.80;;
66597;SDS011;57424;53.128;6.406;2024-02-26T04:12:40;5.80;;;3.80;;
66597;SDS011;57424;53.128;6.406;2024-02-26T04:15:07;5.63;;;4.13;;
66597;SDS011;57424;53.128;6.406;2024-02-26T04:17:33;4.68;;;3.28;;
66597;SDS011;57424;53.128;6.406;2024-02-26T04:19:59;6.13;;;3.50;;
66597;SDS011;57424;53.128;6.406;2024-02-26T04:22:24;4.85;;;3.50;;
66597;SDS011;57424;53.128;6.406;2024-02-26T04:24:50;5.40;;;3.70;;
66597;SDS011;57424;53.128;6.406;2024-02-26T04:27:15;5.53;;;3.58;;
66597;SDS011;57424;53.128;6.406;2024-02-26T04:29:41;5.43;;;3.40;;
66597;SDS011;57424;53.128;6.406;2024-02-26T04:32:06;5.13;;;3.40;;
66597;SDS011;57424;53.128;6.406;2024-02-26T04:34:32;5.20;;;3.80;;
66597;SDS011;57424;53.128;6.406;2024-02-26T04:36:57;5.07;;;3.50;;
66597;SDS011;57424;53.128;6.406;2024-02-26T04:39:23;4.35;;;3.35;;
66597;SDS011;57424;53.128;6.406;2024-02-26T04:41:51;4.07;;;3.03;;
66597;SDS011;57424;53.128;6.406;2024-02-26T04:44:16;4.65;;;3.20;;
66597;SDS011;57424;53.128;6.406;2024-02-26T04:46:42;3.75;;;2.75;;
66597;SDS011;57424;53.128;6.406;2024-02-26T04:49:08;5.60;;;3.60;;
66597;SDS011;57424;53.128;6.406;2024-02-26T04:51:34;4.95;;;3.00;;
66597;SDS011;57424;53.128;6.406;2024-02-26T04:53:59;4.88;;;3.55;;
66597;SDS011;57424;53.128;6.406;2024-02-26T04:56:25;3.97;;;2.90;;
66597;SDS011;57424;53.128;6.406;2024-02-26T04:58:51;4.93;;;3.55;;
66597;SDS011;57424;53.128;6.406;2024-02-26T05:01:16;5.50;;;3.83;;
66597;SDS011;57424;53.128;6.406;2024-02-26T05:03:43;4.22;;;2.95;;
66597;SDS011;57424;53.128;6.406;2024-02-26T05:06:09;4.28;;;3.13;;
66597;SDS011;57424;53.128;6.406;2024-02-26T05:08:35;3.08;;;2.75;;
66597;SDS011;57424;53.128;6.406;2024-02-26T05:11:03;4.20;;;2.60;;
66597;SDS011;57424;53.128;6.406;2024-02-26T05:13:30;4.03;;;2.80;;
66597;SDS011;57424;53.128;6.406;2024-02-26T05:15:55;4.85;;;2.75;;
66597;SDS011;57424;53.128;6.406;2024-02-26T05:18:24;3.10;;;2.53;;
66597;SDS011;57424;53.128;6.406;2024-02-26T05:20:49;3.45;;;2.83;;
66597;SDS011;57424;53.128;6.406;2024-02-26T05:23:15;4.70;;;3.20;;
66597;SDS011;57424;53.128;6.406;2024-02-26T05:25:40;3.58;;;2.88;;
66597;SDS011;57424;53.128;6.406;2024-02-26T05:28:06;4.15;;;2.92;;
66597;SDS011;57424;53.128;6.406;2024-02-26T05:30:32;4.00;;;2.78;;
66597;SDS011;57424;53.128;6.406;2024-02-26T05:32:58;3.13;;;2.38;;
66597;SDS011;57424;53.128;6.406;2024-02-26T05:35:24;4.55;;;2.70;;
66597;SDS011;57424;53.128;6.406;2024-02-26T05:37:50;4.53;;;2.83;;
66597;SDS011;57424;53.128;6.406;2024-02-26T05:40:16;4.55;;;3.10;;
66597;SDS011;57424;53.128;6.406;2024-02-26T05:42:42;3.83;;;3.10;;
66597;SDS011;57424;53.128;6.406;2024-02-26T05:45:09;4.63;;;2.70;;
66597;SDS011;57424;53.128;6.406;2024-02-26T05:47:35;4.43;;;2.22;;
66597;SDS011;57424;53.128;6.406;2024-02-26T05:50:01;4.05;;;2.80;;
66597;SDS011;57424;53.128;6.406;2024-02-26T05:52:27;3.67;;;2.30;;
66597;SDS011;57424;53.128;6.406;2024-02-26T05:54:54;3.80;;;2.90;;
66597;SDS011;57424;53.128;6.406;2024-02-26T05:57:20;3.70;;;2.67;;
66597;SDS011;57424;53.128;6.406;2024-02-26T05:59:45;3.47;;;2.63;;
66597;SDS011;57424;53.128;6.406;2024-02-26T06:02:11;4.63;;;2.70;;
66597;SDS011;57424;53.128;6.406;2024-02-26T06:04:36;4.15;;;2.50;;
66597;SDS011;57424;53.128;6.406;2024-02-26T06:07:02;3.63;;;2.45;;
66597;SDS011;57424;53.128;6.406;2024-02-26T06:09:28;4.63;;;2.65;;
66597;SDS011;57424;53.128;6.406;2024-02-26T06:11:53;3.47;;;2.75;;
66597;SDS011;57424;53.128;6.406;2024-02-26T06:14:19;3.88;;;2.70;;
66597;SDS011;57424;53.128;6.406;2024-02-26T06:16:45;3.65;;;2.60;;
66597;SDS011;57424;53.128;6.406;2024-02-26T06:19:11;4.18;;;2.95;;
66597;SDS011;57424;53.128;6.406;2024-02-26T06:21:37;4.60;;;2.80;;
66597;SDS011;57424;53.128;6.406;2024-02-26T06:24:02;3.33;;;2.30;;
66597;SDS011;57424;53.128;6.406;2024-02-26T06:26:28;3.40;;;2.75;;
66597;SDS011;57424;53.128;6.406;2024-02-26T06:28:54;3.70;;;2.75;;
66597;SDS011;57424;53.128;6.406;2024-02-26T06:31:21;2.97;;;2.50;;
66597;SDS011;57424;53.128;6.406;2024-02-26T06:33:47;3.60;;;2.67;;
66597;SDS011;57424;53.128;6.406;2024-02-26T06:36:13;4.57;;;3.00;;
66597;SDS011;57424;53.128;6.406;2024-02-26T06:38:40;3.25;;;2.63;;
66597;SDS011;57424;53.128;6.406;2024-02-26T06:41:06;4.20;;;2.78;;
66597;SDS011;57424;53.128;6.406;2024-02-26T06:43:31;2.88;;;2.25;;
66597;SDS011;57424;53.128;6.406;2024-02-26T06:45:57;2.65;;;2.15;;
66597;SDS011;57424;53.128;6.406;2024-02-26T06:48:23;3.45;;;2.80;;
66597;SDS011;57424;53.128;6.406;2024-02-26T06:50:49;4.28;;;2.60;;
66597;SDS011;57424;53.128;6.406;2024-02-26T06:53:15;3.72;;;2.33;;
66597;SDS011;57424;53.128;6.406;2024-02-26T06:55:41;2.90;;;2.38;;
66597;SDS011;57424;53.128;6.406;2024-02-26T06:58:07;4.28;;;2.50;;
66597;SDS011;57424;53.128;6.406;2024-02-26T07:00:33;2.83;;;2.30;;
66597;SDS011;57424;53.128;6.406;2024-02-26T07:02:59;3.10;;;2.40;;
66597;SDS011;57424;53.128;6.406;2024-02-26T07:05:24;3.00;;;2.47;;
66597;SDS011;57424;53.128;6.406;2024-02-26T07:07:50;3.40;;;2.80;;
66597;SDS011;57424;53.128;6.406;2024-02-26T07:10:15;3.67;;;2.70;;
66597;SDS011;57424;53.128;6.406;2024-02-26T07:12:41;3.40;;;2.50;;
66597;SDS011;57424;53.128;6.406;2024-02-26T07:15:07;3.70;;;2.70;;
66597;SDS011;57424;53.128;6.406;2024-02-26T07:17:34;3.22;;;2.45;;
66597;SDS011;57424;53.128;6.406;2024-02-26T07:19:59;4.18;;;2.40;;
66597;SDS011;57424;53.128;6.406;2024-02-26T07:22:25;4.07;;;2.33;;
66597;SDS011;57424;53.128;6.406;2024-02-26T07:24:50;3.55;;;2.38;;
66597;SDS011;57424;53.128;6.406;2024-02-26T07:27:16;3.15;;;2.63;;
66597;SDS011;57424;53.128;6.406;2024-02-26T07:29:43;3.25;;;2.42;;
66597;SDS011;57424;53.128;6.406;2024-02-26T07:32:08;3.33;;;2.67;;
66597;SDS011;57424;53.128;6.406;2024-02-26T07:34:35;4.15;;;2.40;;
66597;SDS011;57424;53.128;6.406;2024-02-26T07:37:02;2.85;;;2.38;;
66597;SDS011;57424;53.128;6.406;2024-02-26T07:39:28;3.05;;;2.38;;
66597;SDS011;57424;53.128;6.406;2024-02-26T07:41:53;4.90;;;2.58;;
66597;SDS011;57424;53.128;6.406;2024-02-26T07:44:19;3.75;;;2.40;;
66597;SDS011;57424;53.128;6.406;2024-02-26T07:46:45;3.42;;;2.63;;
66597;SDS011;57424;53.128;6.406;2024-02-26T07:49:10;3.75;;;2.05;;
66597;SDS011;57424;53.128;6.406;2024-02-26T07:51:36;3.50;;;1.98;;
66597;SDS011;57424;53.128;6.406;2024-02-26T07:54:01;2.90;;;2.35;;
66597;SDS011;57424;53.128;6.406;2024-02-26T07:56:27;2.72;;;2.13;;
66597;SDS011;57424;53.128;6.406;2024-02-26T07:58:53;3.75;;;2.50;;
66597;SDS011;57424;53.128;6.406;2024-02-26T08:01:18;4.53;;;2.50;;
66597;SDS011;57424;53.128;6.406;2024-02-26T08:03:44;3.53;;;2.25;;
66597;SDS011;57424;53.128;6.406;2024-02-26T08:06:09;3.83;;;2.70;;
66597;SDS011;57424;53.128;6.406;2024-02-26T08:08:35;2.33;;;1.83;;
66597;SDS011;57424;53.128;6.406;2024-02-26T08:11:00;3.83;;;2.60;;
66597;SDS011;57424;53.128;6.406;2024-02-26T08:13:26;3.55;;;2.40;;
66597;SDS011;57424;53.128;6.406;2024-02-26T08:15:52;3.53;;;2.75;;
66597;SDS011;57424;53.128;6.406;2024-02-26T08:18:18;2.83;;;2.20;;
66597;SDS011;57424;53.128;6.406;2024-02-26T08:20:44;3.15;;;2.10;;
66597;SDS011;57424;53.128;6.406;2024-02-26T08:23:09;2.88;;;2.30;;
66597;SDS011;57424;53.128;6.406;2024-02-26T08:25:35;2.97;;;2.35;;
66597;SDS011;57424;53.128;6.406;2024-02-26T08:28:01;2.97;;;2.05;;
66597;SDS011;57424;53.128;6.406;2024-02-26T08:30:27;3.58;;;2.58;;
66597;SDS011;57424;53.128;6.406;2024-02-26T08:32:52;3.85;;;2.50;;
66597;SDS011;57424;53.128;6.406;2024-02-26T08:35:18;2.83;;;2.10;;
66597;SDS011;57424;53.128;6.406;2024-02-26T08:37:45;3.22;;;2.38;;
66597;SDS011;57424;53.128;6.406;2024-02-26T08:40:11;3.15;;;2.45;;
66597;SDS011;57424;53.128;6.406;2024-02-26T08:42:37;2.63;;;2.25;;
66597;SDS011;57424;53.128;6.406;2024-02-26T08:45:02;3.10;;;1.83;;
66597;SDS011;57424;53.128;6.406;2024-02-26T08:47:28;2.97;;;1.70;;
66597;SDS011;57424;53.128;6.406;2024-02-26T08:49:54;2.35;;;1.80;;
66597;SDS011;57424;53.128;6.406;2024-02-26T08:52:19;3.38;;;2.42;;
66597;SDS011;57424;53.128;6.406;2024-02-26T08:54:46;3.03;;;2.20;;
66597;SDS011;57424;53.128;6.406;2024-02-26T08:57:12;2.33;;;2.00;;
66597;SDS011;57424;53.128;6.406;2024-02-26T08:59:38;2.25;;;1.85;;
66597;SDS011;57424;53.128;6.406;2024-02-26T09:02:03;2.53;;;1.90;;
66597;SDS011;57424;53.128;6.406;2024-02-26T09:04:29;4.55;;;2.20;;
66597;SDS011;57424;53.128;6.406;2024-02-26T09:06:55;3.78;;;2.30;;
66597;SDS011;57424;53.128;6.406;2024-02-26T09:09:20;3.92;;;2.50;;
66597;SDS011;57424;53.128;6.406;2024-02-26T09:11:47;2.38;;;2.08;;
66597;SDS011;57424;53.128;6.406;2024-02-26T09:14:13;2.65;;;2.08;;
66597;SDS011;57424;53.128;6.406;2024-02-26T09:16:39;3.38;;;2.00;;
66597;SDS011;57424;53.128;6.406;2024-02-26T09:19:04;2.55;;;2.00;;
66597;SDS011;57424;53.128;6.406;2024-02-26T09:21:30;2.80;;;1.92;;
66597;SDS011;57424;53.128;6.406;2024-02-26T09:23:56;3.05;;;2.30;;
66597;SDS011;57424;53.128;6.406;2024-02-26T09:26:21;2.85;;;1.63;;
66597;SDS011;57424;53.128;6.406;2024-02-26T09:28:47;3.10;;;2.20;;
66597;SDS011;57424;53.128;6.406;2024-02-26T09:31:13;3.83;;;2.38;;
66597;SDS011;57424;53.128;6.406;2024-02-26T09:33:41;3.38;;;2.30;;
66597;SDS011;57424;53.128;6.406;2024-02-26T09:36:07;3.30;;;2.03;;
66597;SDS011;57424;53.128;6.406;2024-02-26T09:38:34;3.55;;;2.28;;
66597;SDS011;57424;53.128;6.406;2024-02-26T09:41:02;3.50;;;2.10;;
66597;SDS011;57424;53.128;6.406;2024-02-26T09:43:34;4.32;;;2.30;;
66597;SDS011;57424;53.128;6.406;2024-02-26T09:46:04;2.28;;;2.03;;
66597;SDS011;57424;53.128;6.406;2024-02-26T09:48:31;2.65;;;2.00;;
66597;SDS011;57424;53.128;6.406;2024-02-26T09:50:58;2.85;;;2.10;;
66597;SDS011;57424;53.128;6.406;2024-02-26T09:53:25;2.70;;;1.80;;
66597;SDS011;57424;53.128;6.406;2024-02-26T09:55:52;2.87;;;1.97;;
66597;SDS011;57424;53.128;6.406;2024-02-26T09:58:18;3.78;;;2.10;;
66597;SDS011;57424;53.128;6.406;2024-02-26T10:00:46;2.20;;;1.83;;
66597;SDS011;57424;53.128;6.406;2024-02-26T10:03:15;2.13;;;1.90;;
66597;SDS011;57424;53.128;6.406;2024-02-26T10:05:42;2.72;;;2.10;;
66597;SDS011;57424;53.128;6.406;2024-02-26T10:08:09;2.15;;;1.90;;
66597;SDS011;57424;53.128;6.406;2024-02-26T10:10:37;2.30;;;1.77;;
66597;SDS011;57424;53.128;6.406;2024-02-26T10:13:03;2.28;;;1.70;;
66597;SDS011;57424;53.128;6.406;2024-02-26T10:15:35;2.13;;;1.77;;
66597;SDS011;57424;53.128;6.406;2024-02-26T10:18:03;2.45;;;1.90;;
66597;SDS011;57424;53.128;6.406;2024-02-26T10:20:30;5.10;;;1.90;;
66597;SDS011;57424;53.128;6.406;2024-02-26T10:22:56;2.33;;;2.00;;
66597;SDS011;57424;53.128;6.406;2024-02-26T10:25:22;2.47;;;1.90;;
66597;SDS011;57424;53.128;6.406;2024-02-26T10:27:48;2.78;;;1.88;;
66597;SDS011;57424;53.128;6.406;2024-02-26T10:32:44;2.25;;;1.50;;
66597;SDS011;57424;53.128;6.406;2024-02-26T10:35:14;2.15;;;1.58;;
66597;SDS011;57424;53.128;6.406;2024-02-26T10:37:41;2.17;;;1.65;;
66597;SDS011;57424;53.128;6.406;2024-02-26T10:40:13;2.45;;;1.80;;
66597;SDS011;57424;53.128;6.406;2024-02-26T10:42:40;2.10;;;1.52;;
66597;SDS011;57424;53.128;6.406;2024-02-26T10:45:06;2.85;;;1.70;;
66597;SDS011;57424;53.128;6.406;2024-02-26T10:47:34;2.83;;;1.80;;
66597;SDS011;57424;53.128;6.406;2024-02-26T10:50:01;2.95;;;1.75;;
66597;SDS011;57424;53.128;6.406;2024-02-26T10:52:28;2.50;;;1.90;;
66597;SDS011;57424;53.128;6.406;2024-02-26T10:55:01;2.55;;;1.90;;
66597;SDS011;57424;53.128;6.406;2024-02-26T10:57:28;1.90;;;1.57;;
66597;SDS011;57424;53.128;6.406;2024-02-26T10:59:57;3.80;;;2.22;;
66597;SDS011;57424;53.128;6.406;2024-02-26T11:02:25;1.92;;;1.40;;
66597;SDS011;57424;53.128;6.406;2024-02-26T11:04:52;2.78;;;1.80;;
66597;SDS011;57424;53.128;6.406;2024-02-26T11:07:18;3.47;;;1.80;;
66597;SDS011;57424;53.128;6.406;2024-02-26T11:09:45;2.67;;;1.75;;
66597;SDS011;57424;53.128;6.406;2024-02-26T11:12:16;2.75;;;1.63;;
66597;SDS011;57424;53.128;6.406;2024-02-26T11:14:45;1.67;;;1.52;;
66597;SDS011;57424;53.128;6.406;2024-02-26T11:17:11;2.17;;;1.67;;
66597;SDS011;57424;53.128;6.406;2024-02-26T11:19:40;2.28;;;1.50;;
66597;SDS011;57424;53.128;6.406;2024-02-26T11:22:08;1.75;;;1.50;;
66597;SDS011;57424;53.128;6.406;2024-02-26T11:24:33;2.08;;;1.70;;
66597;SDS011;57424;53.128;6.406;2024-02-26T11:27:01;3.47;;;1.73;;
66597;SDS011;57424;53.128;6.406;2024-02-26T11:30:02;2.95;;;1.90;;
66597;SDS011;57424;53.128;6.406;2024-02-26T11:32:22;1.85;;;1.60;;
66597;SDS011;57424;53.128;6.406;2024-02-26T11:34:48;2.95;;;1.83;;
66597;SDS011;57424;53.128;6.406;2024-02-26T11:37:15;1.77;;;1.55;;
66597;SDS011;57424;53.128;6.406;2024-02-26T11:39:42;2.60;;;1.67;;
66597;SDS011;57424;53.128;6.406;2024-02-26T11:42:09;2.75;;;1.80;;
66597;SDS011;57424;53.128;6.406;2024-02-26T11:44:38;2.00;;;1.50;;
66597;SDS011;57424;53.128;6.406;2024-02-26T11:47:13;2.30;;;1.70;;
66597;SDS011;57424;53.128;6.406;2024-02-26T11:49:43;3.75;;;2.10;;
66597;SDS011;57424;53.128;6.406;2024-02-26T11:52:08;2.30;;;2.10;;
66597;SDS011;57424;53.128;6.406;2024-02-26T11:54:38;1.98;;;1.42;;
66597;SDS011;57424;53.128;6.406;2024-02-26T12:05:15;2.25;;;1.60;;
66597;SDS011;57424;53.128;6.406;2024-02-26T12:08:02;3.33;;;1.98;;
66597;SDS011;57424;53.128;6.406;2024-02-26T12:10:31;2.90;;;2.10;;
66597;SDS011;57424;53.128;6.406;2024-02-26T12:13:16;2.60;;;1.92;;
66597;SDS011;57424;53.128;6.406;2024-02-26T12:15:45;2.78;;;2.05;;
66597;SDS011;57424;53.128;6.406;2024-02-26T12:18:19;2.75;;;2.05;;
66597;SDS011;57424;53.128;6.406;2024-02-26T12:20:46;4.10;;;1.88;;
66597;SDS011;57424;53.128;6.406;2024-02-26T12:23:15;3.33;;;1.75;;
66597;SDS011;57424;53.128;6.406;2024-02-26T12:25:44;5.03;;;2.28;;
66597;SDS011;57424;53.128;6.406;2024-02-26T12:28:13;2.63;;;2.10;;
66597;SDS011;57424;53.128;6.406;2024-02-26T12:30:39;2.28;;;1.65;;
66597;SDS011;57424;53.128;6.406;2024-02-26T12:33:05;2.47;;;1.90;;
66597;SDS011;57424;53.128;6.406;2024-02-26T12:35:33;2.38;;;1.80;;
66597;SDS011;57424;53.128;6.406;2024-02-26T12:38:00;5.57;;;2.10;;
66597;SDS011;57424;53.128;6.406;2024-02-26T12:40:25;4.03;;;2.03;;
66597;SDS011;57424;53.128;6.406;2024-02-26T12:42:52;3.28;;;2.00;;
66597;SDS011;57424;53.128;6.406;2024-02-26T12:45:20;3.40;;;2.20;;
66597;SDS011;57424;53.128;6.406;2024-02-26T12:47:45;3.28;;;1.90;;
66597;SDS011;57424;53.128;6.406;2024-02-26T12:50:12;2.75;;;2.10;;
66597;SDS011;57424;53.128;6.406;2024-02-26T12:52:39;4.78;;;2.03;;
66597;SDS011;57424;53.128;6.406;2024-02-26T12:55:07;3.83;;;2.25;;
66597;SDS011;57424;53.128;6.406;2024-02-26T12:57:35;3.80;;;2.10;;
66597;SDS011;57424;53.128;6.406;2024-02-26T13:00:02;3.88;;;2.30;;
66597;SDS011;57424;53.128;6.406;2024-02-26T13:02:34;2.65;;;2.10;;
66597;SDS011;57424;53.128;6.406;2024-02-26T13:05:01;3.03;;;2.08;;
66597;SDS011;57424;53.128;6.406;2024-02-26T13:07:28;3.65;;;2.00;;
66597;SDS011;57424;53.128;6.406;2024-02-26T13:09:54;3.05;;;2.15;;
66597;SDS011;57424;53.128;6.406;2024-02-26T13:12:20;3.97;;;2.08;;
66597;SDS011;57424;53.128;6.406;2024-02-26T13:14:46;5.00;;;2.20;;
66597;SDS011;57424;53.128;6.406;2024-02-26T13:17:11;4.47;;;2.30;;
66597;SDS011;57424;53.128;6.406;2024-02-26T13:19:37;3.38;;;2.15;;
66597;SDS011;57424;53.128;6.406;2024-02-26T13:22:03;3.30;;;2.42;;
66597;SDS011;57424;53.128;6.406;2024-02-26T13:24:31;3.55;;;2.30;;
66597;SDS011;57424;53.128;6.406;2024-02-26T13:26:57;3.25;;;2.03;;
66597;SDS011;57424;53.128;6.406;2024-02-26T13:29:23;4.38;;;2.80;;
66597;SDS011;57424;53.128;6.406;2024-02-26T13:31:53;7.78;;;2.58;;
66597;SDS011;57424;53.128;6.406;2024-02-26T13:34:23;6.68;;;2.70;;
66597;SDS011;57424;53.128;6.406;2024-02-26T13:36:50;4.35;;;2.33;;
66597;SDS011;57424;53.128;6.406;2024-02-26T13:39:23;8.00;;;2.45;;
66597;SDS011;57424;53.128;6.406;2024-02-26T13:41:50;3.70;;;2.53;;
66597;SDS011;57424;53.128;6.406;2024-02-26T13:44:16;4.28;;;2.70;;
66597;SDS011;57424;53.128;6.406;2024-02-26T13:46:41;2.58;;;2.00;;
66597;SDS011;57424;53.128;6.406;2024-02-26T13:49:08;3.67;;;2.38;;
66597;SDS011;57424;53.128;6.406;2024-02-26T13:51:34;4.57;;;2.30;;
66597;SDS011;57424;53.128;6.406;2024-02-26T13:54:00;3.85;;;2.65;;
66597;SDS011;57424;53.128;6.406;2024-02-26T13:56:27;5.28;;;2.25;;
66597;SDS011;57424;53.128;6.406;2024-02-26T13:58:52;3.53;;;2.50;;
66597;SDS011;57424;53.128;6.406;2024-02-26T14:01:18;3.88;;;2.35;;
66597;SDS011;57424;53.128;6.406;2024-02-26T14:03:43;4.63;;;2.05;;
66597;SDS011;57424;53.128;6.406;2024-02-26T14:06:10;6.70;;;2.88;;
66597;SDS011;57424;53.128;6.406;2024-02-26T14:08:35;4.88;;;3.03;;
66597;SDS011;57424;53.128;6.406;2024-02-26T14:11:01;4.32;;;2.40;;
66597;SDS011;57424;53.128;6.406;2024-02-26T14:13:26;4.15;;;2.40;;
66597;SDS011;57424;53.128;6.406;2024-02-26T14:15:52;4.55;;;2.45;;
66597;SDS011;57424;53.128;6.406;2024-02-26T14:18:18;5.60;;;2.65;;
66597;SDS011;57424;53.128;6.406;2024-02-26T14:20:43;4.43;;;2.70;;
66597;SDS011;57424;53.128;6.406;2024-02-26T14:23:09;4.88;;;2.47;;
66597;SDS011;57424;53.128;6.406;2024-02-26T14:25:35;3.85;;;2.50;;
66597;SDS011;57424;53.128;6.406;2024-02-26T14:28:01;3.83;;;2.42;;
66597;SDS011;57424;53.128;6.406;2024-02-26T14:30:27;3.50;;;2.60;;
66597;SDS011;57424;53.128;6.406;2024-02-26T14:32:54;4.18;;;2.75;;
66597;SDS011;57424;53.128;6.406;2024-02-26T14:35:19;5.07;;;3.30;;
66597;SDS011;57424;53.128;6.406;2024-02-26T14:37:45;3.35;;;2.55;;
66597;SDS011;57424;53.128;6.406;2024-02-26T14:40:12;4.63;;;2.60;;
66597;SDS011;57424;53.128;6.406;2024-02-26T14:42:38;4.18;;;3.00;;
66597;SDS011;57424;53.128;6.406;2024-02-26T14:45:04;4.13;;;2.80;;
66597;SDS011;57424;53.128;6.406;2024-02-26T14:47:33;3.85;;;2.83;;
66597;SDS011;57424;53.128;6.406;2024-02-26T14:49:59;3.78;;;2.75;;
66597;SDS011;57424;53.128;6.406;2024-02-26T14:52:25;4.05;;;2.83;;